Time;durP1;ratioP1;P1;durP2;ratioP2;P2;SDS_P1;SDS_P2;PMS_P1;PMS_P2;Temp;Humidity;BMP_temperature;BMP_pressure;BME280_temperature;BME280_humidity;BME280_pressure;Samples;Min_cycle;Max_cycle;Signal;HPM_P1;HPM_P2
2022/04/17 00:00:48;;;;;;;3.90;2.50;;;18.30;43.30;;;;;;7416836;19;20064;-86
2022/04/17 00:03:21;;;;;;;3.38;2.72;;;18.20;43.10;;;;;;7398303;19;20021;-86
2022/04/17 00:05:50;;;;;;;3.38;2.70;;;18.20;43.40;;;;;;7391176;19;20010;-86
2022/04/17 00:08:22;;;;;;;5.93;2.60;;;18.20;43.40;;;;;;7391971;19;20015;-86
2022/04/17 00:10:51;;;;;;;6.78;2.63;;;18.20;43.30;;;;;;7388280;19;20013;-86
2022/04/17 00:13:20;;;;;;;6.50;2.83;;;18.20;43.60;;;;;;7388423;19;20021;-86
2022/04/17 00:15:49;;;;;;;4.55;2.72;;;18.10;43.40;;;;;;7407048;19;20022;-86
2022/04/17 00:18:18;;;;;;;3.80;2.90;;;18.10;43.40;;;;;;7389581;19;20018;-87
2022/04/17 00:20:47;;;;;;;3.40;2.67;;;18.10;43.30;;;;;;7389445;19;20025;-87
2022/04/17 00:23:15;;;;;;;3.28;2.83;;;18.00;43.10;;;;;;7388822;19;20035;-86
2022/04/17 00:25:47;;;;;;;11.82;2.90;;;18.00;43.20;;;;;;7391325;19;20085;-86
2022/04/17 00:28:15;;;;;;;;;;;18.00;42.80;;;;;;7399534;19;20085;-86
2022/04/17 00:30:44;;;;;;;3.03;2.25;;;18.00;42.60;;;;;;7421497;19;19919;-87
2022/04/17 00:33:13;;;;;;;5.50;2.35;;;18.00;42.80;;;;;;7397959;19;20040;-86
2022/04/17 00:35:43;;;;;;;5.60;3.30;;;17.90;42.70;;;;;;7395886;19;20010;-87
2022/04/17 00:38:12;;;;;;;4.03;2.92;;;18.00;42.60;;;;;;7403880;19;20010;-86
2022/04/17 00:40:41;;;;;;;3.60;2.50;;;17.90;42.40;;;;;;7398351;19;20015;-87
2022/04/17 00:43:25;;;;;;;3.63;2.70;;;17.90;42.30;;;;;;7393421;19;20805;-86
2022/04/17 00:45:54;;;;;;;6.00;2.92;;;17.90;42.50;;;;;;7416448;19;20059;-86
2022/04/17 00:48:23;;;;;;;9.88;3.15;;;17.90;42.50;;;;;;7396853;19;20497;-86
2022/04/17 00:50:53;;;;;;;3.97;2.70;;;17.90;42.60;;;;;;7397592;19;20022;-86
2022/04/17 00:53:24;;;;;;;3.97;2.88;;;17.80;42.40;;;;;;7390337;19;20029;-86
2022/04/17 00:55:53;;;;;;;4.38;3.33;;;17.80;42.20;;;;;;7383903;19;20098;-86
2022/04/17 00:58:24;;;;;;;4.38;3.35;;;17.80;42.30;;;;;;7384602;19;20042;-85
2022/04/17 01:00:53;;;;;;;4.55;3.30;;;17.70;42.40;;;;;;7409350;19;20035;-85
2022/04/17 01:03:22;;;;;;;7.05;3.00;;;17.70;42.40;;;;;;7381564;19;20098;-86
2022/04/17 01:05:51;;;;;;;4.13;3.10;;;17.70;42.40;;;;;;7380790;19;20024;-86
2022/04/17 01:08:20;;;;;;;2.85;2.30;;;17.60;42.00;;;;;;7383822;19;20055;-85
2022/04/17 01:10:49;;;;;;;3.35;2.17;;;17.60;41.90;;;;;;7384044;19;20015;-86
2022/04/17 01:13:19;;;;;;;4.03;2.50;;;17.60;41.70;;;;;;7385553;19;20032;-85
2022/04/17 01:15:50;;;;;;;4.88;2.67;;;17.60;41.90;;;;;;7406597;19;20468;-86
2022/04/17 01:18:19;;;;;;;5.40;3.38;;;17.60;42.00;;;;;;7384396;19;20315;-85
2022/04/17 01:20:48;;;;;;;4.82;3.13;;;17.60;42.10;;;;;;7381757;19;20094;-86
2022/04/17 01:28:42;;;;;;;3.90;3.10;;;17.40;42.00;;;;;;7382523;19;20021;-86
2022/04/17 01:31:10;;;;;;;3.83;2.70;;;17.40;42.90;;;;;;7379119;19;20018;-85
2022/04/17 01:33:39;;;;;;;3.72;2.30;;;17.40;42.10;;;;;;7400860;19;20018;-85
2022/04/17 01:36:08;;;;;;;3.60;2.20;;;17.30;42.00;;;;;;7380797;19;20039;-86
2022/04/17 01:38:39;;;;;;;2.70;2.17;;;17.30;41.70;;;;;;7381593;19;20022;-86
2022/04/17 01:41:08;;;;;;;2.60;2.40;;;17.30;41.80;;;;;;7383287;19;20018;-86
2022/04/17 01:43:37;;;;;;;2.75;2.45;;;17.30;42.00;;;;;;7381527;19;20042;-85
2022/04/17 01:46:06;;;;;;;3.90;2.58;;;17.30;41.60;;;;;;7382733;19;20018;-86
2022/04/17 01:48:34;;;;;;;3.63;2.83;;;17.30;41.40;;;;;;7400816;19;20038;-85
2022/04/17 01:51:03;;;;;;;4.25;2.80;;;17.20;40.90;;;;;;7377503;19;20014;-85
2022/04/17 01:53:32;;;;;;;5.43;3.17;;;17.20;40.90;;;;;;7379287;19;20007;-85
2022/04/17 01:56:05;;;;;;;4.78;2.78;;;17.20;40.90;;;;;;7379072;19;20726;-85
2022/04/17 01:58:33;;;;;;;4.75;2.65;;;17.20;41.70;;;;;;7377746;19;20085;-85
2022/04/17 02:01:02;;;;;;;2.70;2.25;;;17.20;41.20;;;;;;7400222;19;20518;-85
2022/04/17 02:03:31;;;;;;;5.18;2.63;;;17.10;40.90;;;;;;7380405;19;20518;-85
2022/04/17 02:06:00;;;;;;;4.65;2.50;;;17.10;41.10;;;;;;7375722;19;20018;-85
2022/04/17 02:08:29;;;;;;;5.32;2.55;;;17.10;41.30;;;;;;7378228;19;20584;-85
2022/04/17 02:10:58;;;;;;;7.70;2.72;;;17.10;41.10;;;;;;7377723;19;20011;-86
2022/04/17 02:13:30;;;;;;;6.95;3.03;;;17.10;41.10;;;;;;7375231;19;20017;-85
2022/04/17 02:15:59;;;;;;;;;;;17.10;40.90;;;;;;7400948;19;20051;-85
2022/04/17 02:18:28;;;;;;;7.32;3.15;;;17.00;41.00;;;;;;7380735;19;19914;-85
2022/04/17 02:20:57;;;;;;;6.50;3.97;;;17.00;41.20;;;;;;7380241;19;20339;-86
2022/04/17 02:23:25;;;;;;;5.60;2.88;;;16.90;41.30;;;;;;7377521;19;20406;-85
2022/04/17 02:25:54;;;;;;;4.63;2.90;;;16.90;40.90;;;;;;7374806;19;20049;-85
2022/04/17 02:28:23;;;;;;;7.70;4.05;;;16.90;40.60;;;;;;7377130;19;20324;-85
2022/04/17 02:30:54;;;;;;;7.90;4.10;;;16.90;40.80;;;;;;7400453;19;20010;-85
2022/04/17 02:33:23;;;;;;;7.10;3.95;;;16.90;40.80;;;;;;7378109;19;20085;-86
2022/04/17 02:35:52;;;;;;;3.92;3.03;;;16.90;40.90;;;;;;7379493;19;20082;-86
2022/04/17 02:38:21;;;;;;;7.07;3.25;;;16.90;40.70;;;;;;7379371;19;20078;-85
2022/04/17 02:40:50;;;;;;;6.35;3.42;;;16.90;40.70;;;;;;7381492;19;20031;-86
2022/04/17 02:43:18;;;;;;;6.60;3.03;;;16.90;40.80;;;;;;7384533;19;20032;-87
2022/04/17 02:45:47;;;;;;;6.65;3.08;;;16.90;40.50;;;;;;7402937;19;20031;-86
2022/04/17 02:48:19;;;;;;;8.00;3.08;;;16.80;40.40;;;;;;7380398;19;20039;-85
2022/04/17 02:50:48;;;;;;;6.78;3.42;;;16.80;40.50;;;;;;7381674;19;20015;-86
2022/04/17 02:53:17;;;;;;;4.55;2.90;;;16.80;40.60;;;;;;7385260;19;20423;-85
2022/04/17 02:55:46;;;;;;;7.50;3.35;;;16.80;40.50;;;;;;7379798;19;20473;-85
2022/04/17 02:58:15;;;;;;;5.82;3.05;;;16.80;40.90;;;;;;7378675;19;20011;-87
2022/04/17 03:06:10;;;;;;;4.85;3.13;;;16.70;40.70;;;;;;7384808;19;20645;-88
2022/04/17 03:08:41;;;;;;;5.85;2.92;;;16.70;41.50;;;;;;7382038;19;20010;-87
2022/04/17 03:11:10;;;;;;;4.85;3.00;;;16.70;40.30;;;;;;7379295;19;20482;-86
2022/04/17 03:13:39;;;;;;;5.65;2.92;;;16.70;40.70;;;;;;7379370;19;20031;-87
2022/04/17 03:16:09;;;;;;;3.75;2.25;;;16.60;40.30;;;;;;7383139;19;20014;-85
2022/04/17 03:18:40;;;;;;;10.13;2.15;;;16.60;40.00;;;;;;7400283;19;20033;-86
2022/04/17 03:21:09;;;;;;;4.63;2.60;;;16.60;39.80;;;;;;7381892;19;20014;-86
2022/04/17 03:23:38;;;;;;;6.88;2.80;;;16.60;39.50;;;;;;7387019;19;20109;-87
2022/04/17 03:26:06;;;;;;;6.30;2.30;;;16.60;39.60;;;;;;7382245;19;20861;-87
2022/04/17 03:28:35;;;;;;;4.47;2.38;;;16.60;39.90;;;;;;7379059;19;20102;-87
2022/04/17 03:31:04;;;;;;;5.22;2.30;;;16.60;39.50;;;;;;7398349;19;20043;-81
2022/04/17 03:33:33;;;;;;;4.50;2.70;;;16.60;39.50;;;;;;7400249;19;20021;-87
2022/04/17 03:36:05;;;;;;;4.70;3.15;;;16.60;40.00;;;;;;7379024;19;20121;-87
2022/04/17 03:38:34;;;;;;;5.45;2.67;;;16.50;40.40;;;;;;7378448;19;20061;-87
2022/04/17 03:41:02;;;;;;;4.07;2.17;;;16.50;40.30;;;;;;7377424;19;20438;-87
2022/04/17 03:43:31;;;;;;;3.42;2.55;;;16.50;40.00;;;;;;7378322;19;20105;-87
2022/04/17 03:46:00;;;;;;;3.05;2.35;;;16.40;40.00;;;;;;7402917;19;20014;-87
2022/04/17 03:48:28;;;;;;;2.22;2.00;;;16.40;40.00;;;;;;7379771;19;20493;-88
2022/04/17 03:50:57;;;;;;;7.72;2.67;;;16.40;39.70;;;;;;7380407;19;20019;-87
2022/04/17 03:53:29;;;;;;;4.28;2.83;;;16.40;40.40;;;;;;7380172;19;20454;-86
2022/04/17 03:55:57;;;;;;;3.15;2.40;;;16.40;40.60;;;;;;7377896;19;20331;-86
2022/04/17 03:58:26;;;;;;;5.70;2.70;;;16.30;40.30;;;;;;7382194;19;20042;-86
2022/04/17 04:00:55;;;;;;;8.25;2.90;;;16.30;40.60;;;;;;7407014;19;20038;-87
2022/04/17 04:03:24;;;;;;;3.90;2.50;;;16.20;41.20;;;;;;7380717;19;20015;-85
2022/04/17 04:05:53;;;;;;;2.83;2.50;;;16.20;41.60;;;;;;7383634;19;20014;-87
2022/04/17 04:08:21;;;;;;;4.00;2.78;;;16.10;42.10;;;;;;7390753;19;20486;-87
2022/04/17 04:10:53;;;;;;;3.60;2.90;;;16.00;42.30;;;;;;7392663;19;20031;-87
2022/04/17 04:13:21;;;;;;;;;;;16.00;41.90;;;;;;7388570;19;20018;-86
2022/04/17 04:15:50;;;;;;;3.53;2.45;;;16.00;42.50;;;;;;7404125;19;19939;-87
2022/04/17 04:18:19;;;;;;;4.13;2.70;;;15.90;42.70;;;;;;7376434;19;20047;-87
2022/04/17 04:20:47;;;;;;;4.80;2.58;;;15.90;42.80;;;;;;7377767;19;20018;-87
2022/04/17 04:23:16;;;;;;;4.40;2.65;;;15.80;43.00;;;;;;7377833;19;20074;-87
2022/04/17 04:25:45;;;;;;;10.35;5.45;;;15.80;43.20;;;;;;7374659;19;20355;-87
2022/04/17 04:30:57;;;;;;;5.07;2.30;;;15.70;43.30;;;;;;7399392;19;20450;-86
2022/04/17 04:33:26;;;;;;;2.53;2.20;;;15.70;43.30;;;;;;7381157;19;20438;-87
2022/04/17 04:35:55;;;;;;;5.22;2.67;;;15.70;43.70;;;;;;7381813;19;20113;-87
2022/04/17 04:38:25;;;;;;;8.82;2.80;;;15.60;43.80;;;;;;7385991;19;20022;-87
2022/04/17 04:40:53;;;;;;;2.60;2.38;;;15.60;43.90;;;;;;7384675;19;20010;-87
2022/04/17 04:43:25;;;;;;;4.45;2.78;;;15.60;43.80;;;;;;7384605;19;20082;-87
2022/04/17 04:46:09;;;;;;;4.00;2.60;;;15.50;43.80;;;;;;7409395;19;20018;-87
2022/04/17 04:51:20;;;;;;;5.75;2.70;;;15.40;44.30;;;;;;7381373;19;20007;-82
2022/04/17 04:53:49;;;;;;;4.03;2.63;;;15.40;44.30;;;;;;7377606;19;20018;-82
2022/04/17 04:56:18;;;;;;;4.00;2.50;;;15.30;44.40;;;;;;7375000;19;20043;-83
2022/04/17 04:58:50;;;;;;;4.28;2.45;;;15.30;44.40;;;;;;7379624;19;20015;-82
2022/04/17 05:01:19;;;;;;;6.05;2.50;;;15.20;44.30;;;;;;7377891;19;20019;-81
2022/04/17 05:03:47;;;;;;;4.90;2.50;;;15.20;44.20;;;;;;7401593;19;20013;-83
2022/04/17 05:06:17;;;;;;;5.68;2.25;;;15.20;44.60;;;;;;7378390;19;20082;-82
2022/04/17 05:08:45;;;;;;;3.60;2.20;;;15.10;44.30;;;;;;7379202;19;20015;-83
2022/04/17 05:11:14;;;;;;;5.68;2.40;;;15.20;44.00;;;;;;7375240;19;20094;-82
2022/04/17 05:13:43;;;;;;;5.28;2.03;;;15.10;43.80;;;;;;7378087;19;20470;-82
2022/04/17 05:16:15;;;;;;;3.45;2.45;;;15.10;44.30;;;;;;7376673;19;20569;-83
2022/04/17 05:18:46;;;;;;;9.30;2.50;;;15.10;44.70;;;;;;7399760;19;20037;-82
2022/04/17 05:21:15;;;;;;;4.88;2.20;;;15.00;44.50;;;;;;7378149;19;20453;-83
2022/04/17 05:23:44;;;;;;;6.78;2.35;;;15.00;44.10;;;;;;7377618;19;20031;-84
2022/04/17 05:26:12;;;;;;;8.55;2.30;;;14.90;43.80;;;;;;7379525;19;20021;-84
2022/04/17 05:28:41;;;;;;;4.30;2.60;;;14.90;43.90;;;;;;7380273;19;20014;-84
2022/04/17 05:31:10;;;;;;;4.15;2.22;;;14.90;44.20;;;;;;7377432;19;20101;-83
2022/04/17 05:33:41;;;;;;;3.83;2.80;;;14.90;44.70;;;;;;7402262;19;20406;-83
2022/04/17 05:36:10;;;;;;;2.97;2.17;;;14.90;44.70;;;;;;7377476;19;20082;-84
2022/04/17 05:38:39;;;;;;;4.38;2.65;;;14.90;45.00;;;;;;7379536;19;20015;-82
2022/04/17 05:41:12;;;;;;;5.55;2.80;;;14.90;45.10;;;;;;7379795;19;20010;-85
2022/04/17 05:43:41;;;;;;;4.47;2.63;;;15.00;45.70;;;;;;7377297;19;20109;-83
2022/04/17 05:46:11;;;;;;;4.60;2.72;;;15.00;46.00;;;;;;7377746;19;20030;-82
2022/04/17 05:48:42;;;;;;;4.80;3.10;;;14.90;45.90;;;;;;7395111;19;20018;-83
2022/04/17 05:51:11;;;;;;;3.90;2.85;;;15.00;46.20;;;;;;7374584;19;20026;-82
2022/04/17 05:53:40;;;;;;;7.55;3.03;;;15.00;46.40;;;;;;7376234;19;20474;-83
2022/04/17 05:56:10;;;;;;;7.05;2.97;;;15.00;46.50;;;;;;7376861;19;20017;-81
2022/04/17 05:58:38;;;;;;;5.18;3.05;;;15.00;46.40;;;;;;7378335;19;20785;-82
2022/04/17 06:01:07;;;;;;;6.57;2.97;;;15.10;46.40;;;;;;7372828;19;20018;-81
2022/04/17 06:03:36;;;;;;;5.40;3.03;;;15.10;46.60;;;;;;7396105;19;20502;-82
2022/04/17 06:06:07;;;;;;;6.70;3.28;;;15.10;46.30;;;;;;7374810;19;20051;-83
2022/04/17 06:08:36;;;;;;;4.60;2.78;;;15.10;46.20;;;;;;7379526;19;20383;-83
2022/04/17 06:11:08;;;;;;;7.22;2.67;;;15.20;46.00;;;;;;7380379;19;20019;-83
2022/04/17 06:13:36;;;;;;;3.53;2.45;;;15.20;45.80;;;;;;7381812;19;20055;-83
2022/04/17 06:16:06;;;;;;;5.43;2.30;;;15.30;45.30;;;;;;7391030;19;20026;-83
2022/04/17 06:18:34;;;;;;;3.15;2.72;;;15.40;45.10;;;;;;7400847;19;20029;-83
2022/04/17 06:21:03;;;;;;;7.05;2.40;;;15.40;45.70;;;;;;7376282;19;20027;-83
2022/04/17 06:23:34;;;;;;;6.10;2.55;;;15.50;44.00;;;;;;7379392;19;20098;-83
2022/04/17 06:26:04;;;;;;;4.50;2.22;;;15.50;43.10;;;;;;7380130;19;20021;-84
2022/04/17 06:28:33;;;;;;;3.25;2.35;;;15.60;42.70;;;;;;7379721;19;20015;-84
2022/04/17 06:31:02;;;;;;;4.25;2.63;;;15.60;41.70;;;;;;7409213;19;20054;-84
2022/04/17 06:33:34;;;;;;;4.88;2.78;;;15.70;40.80;;;;;;7398249;19;20066;-85
2022/04/17 06:36:02;;;;;;;4.85;2.53;;;15.80;40.50;;;;;;7401378;19;20054;-84
2022/04/17 06:38:34;;;;;;;5.50;2.65;;;15.80;40.90;;;;;;7403840;19;20031;-83
2022/04/17 06:41:03;;;;;;;6.15;2.92;;;15.90;40.50;;;;;;7404204;19;20042;-82
2022/04/17 06:43:31;;;;;;;4.35;2.75;;;16.00;40.40;;;;;;7402399;19;20014;-83
2022/04/17 06:46:08;;;;;;;5.30;2.38;;;16.00;40.20;;;;;;7418829;19;20014;-85
2022/04/17 06:48:37;;;;;;;5.15;3.03;;;16.00;40.20;;;;;;7388169;19;20013;-85
2022/04/17 06:51:08;;;;;;;6.07;3.25;;;16.00;39.70;;;;;;7384178;19;20379;-84
2022/04/17 06:53:39;;;;;;;6.32;2.58;;;16.10;39.70;;;;;;7379939;19;20210;-84
2022/04/17 06:56:12;;;;;;;3.80;2.95;;;16.10;39.70;;;;;;7377104;19;20057;-84
2022/04/17 06:58:41;;;;;;;4.75;3.08;;;16.10;39.70;;;;;;7376300;19;20007;-85
2022/04/17 07:01:09;;;;;;;5.63;3.00;;;16.20;38.50;;;;;;7375988;19;20026;-83
2022/04/17 07:03:38;;;;;;;6.95;2.90;;;16.20;38.60;;;;;;7398981;19;20404;-85
2022/04/17 07:06:07;;;;;;;5.70;2.97;;;16.20;38.70;;;;;;7378041;19;20078;-85
2022/04/17 07:08:45;;;;;;;6.47;3.25;;;16.20;38.60;;;;;;7380072;19;20739;-85
2022/04/17 07:11:23;;;;;;;5.45;2.85;;;16.30;38.70;;;;;;7379247;19;20478;-83
2022/04/17 07:14:14;;;;;;;;;;;;;;;;;;;;;
2022/04/17 07:16:43;;;;;;;4.63;2.97;;;16.30;39.10;;;;;;7376618;19;20014;-84
2022/04/17 07:19:13;;;;;;;3.85;2.80;;;16.40;38.80;;;;;;7373951;19;20018;-83
2022/04/17 07:21:42;;;;;;;5.35;3.03;;;16.40;38.50;;;;;;7399237;19;20014;-83
2022/04/17 07:24:14;;;;;;;5.55;3.25;;;16.40;38.30;;;;;;7377331;19;20098;-83
2022/04/17 07:26:43;;;;;;;7.25;2.85;;;16.40;38.10;;;;;;7374117;19;20416;-83
2022/04/17 07:29:12;;;;;;;7.60;3.38;;;16.50;38.30;;;;;;7374333;19;20017;-82
2022/04/17 07:31:40;;;;;;;6.55;3.10;;;16.50;38.00;;;;;;7376524;19;20010;-82
2022/04/17 07:34:09;;;;;;;3.65;2.90;;;16.50;38.00;;;;;;7377666;19;20014;-81
2022/04/17 07:36:38;;;;;;;5.72;3.20;;;16.50;37.60;;;;;;7397268;19;20089;-81
2022/04/17 07:39:06;;;;;;;5.60;2.92;;;16.50;37.70;;;;;;7377056;19;20014;-82
2022/04/17 07:41:39;;;;;;;6.03;3.13;;;16.50;37.70;;;;;;7377462;19;20081;-82
2022/04/17 07:44:10;;;;;;;7.03;2.83;;;16.50;37.80;;;;;;7378147;19;20033;-82
2022/04/17 07:46:39;;;;;;;4.70;2.90;;;16.50;37.90;;;;;;7375531;19;20430;-82
2022/04/17 07:49:08;;;;;;;4.55;2.70;;;16.50;37.70;;;;;;7371253;19;20014;-82
2022/04/17 07:51:38;;;;;;;4.72;2.80;;;16.50;37.70;;;;;;7393815;19;20078;-83
2022/04/17 07:54:06;;;;;;;5.82;2.88;;;16.60;37.70;;;;;;7373278;19;20098;-83
2022/04/17 07:56:39;;;;;;;5.45;2.95;;;16.60;37.90;;;;;;7378286;19;20015;-83
2022/04/17 07:59:08;;;;;;;5.63;3.17;;;16.60;37.60;;;;;;7376124;19;20086;-83
2022/04/17 08:01:39;;;;;;;4.10;2.92;;;16.70;37.60;;;;;;7377606;19;20411;-83
2022/04/17 08:04:08;;;;;;;4.05;2.90;;;16.70;37.80;;;;;;7377368;19;20039;-82
2022/04/17 08:06:37;;;;;;;4.05;2.90;;;16.80;37.80;;;;;;7398328;19;20090;-83
2022/04/17 08:09:06;;;;;;;6.13;3.08;;;16.80;37.30;;;;;;7376913;19;20374;-84
2022/04/17 08:11:56;;;;;;;7.47;3.47;;;16.80;37.20;;;;;;7380198;19;20054;-84
2022/04/17 08:14:25;;;;;;;6.55;3.03;;;16.80;37.60;;;;;;7381060;19;20026;-83
2022/04/17 08:16:54;;;;;;;8.18;3.22;;;16.80;37.30;;;;;;7381424;19;20025;-83
2022/04/17 08:19:24;;;;;;;4.45;2.80;;;16.80;37.60;;;;;;7384776;19;20027;-83
2022/04/17 08:21:53;;;;;;;3.38;2.55;;;16.90;37.60;;;;;;7404845;19;20018;-84
2022/04/17 08:24:22;;;;;;;4.32;2.53;;;16.90;37.80;;;;;;7381023;19;20029;-83
2022/04/17 08:26:56;;;;;;;8.35;2.80;;;16.90;37.90;;;;;;7379097;19;20015;-83
2022/04/17 08:29:24;;;;;;;4.90;2.63;;;17.00;38.10;;;;;;7382791;19;20018;-84
2022/04/17 08:31:53;;;;;;;7.15;2.72;;;17.00;37.90;;;;;;7379717;19;20053;-83
2022/04/17 08:34:22;;;;;;;5.88;2.70;;;17.00;37.60;;;;;;7381995;19;20097;-83
2022/04/17 08:36:51;;;;;;;8.80;2.80;;;16.90;36.80;;;;;;7400107;19;20027;-84
2022/04/17 08:39:20;;;;;;;5.43;2.80;;;17.00;36.30;;;;;;7382654;19;20449;-83
2022/04/17 08:41:50;;;;;;;3.28;2.45;;;17.00;35.90;;;;;;7380096;19;20094;-82
2022/04/17 08:44:21;;;;;;;7.68;3.00;;;17.00;35.80;;;;;;7379738;19;20466;-82
2022/04/17 08:46:50;;;;;;;4.47;2.78;;;16.90;36.50;;;;;;7379623;19;20011;-83
2022/04/17 08:49:25;;;;;;;4.38;2.60;;;17.00;36.80;;;;;;7381331;19;20022;-83
2022/04/17 08:51:56;;;;;;;7.25;2.90;;;17.00;36.50;;;;;;7404515;19;20010;-82
2022/04/17 08:54:28;;;;;;;5.15;2.60;;;17.00;36.40;;;;;;7382560;19;20450;-83
2022/04/17 08:56:56;;;;;;;5.90;2.55;;;17.00;36.20;;;;;;7383095;19;20018;-83
2022/04/17 08:59:28;;;;;;;3.35;2.58;;;17.00;36.20;;;;;;7382802;19;20018;-83
2022/04/17 09:01:56;;;;;;;3.83;2.55;;;17.00;36.80;;;;;;7382580;19;20023;-83
2022/04/17 09:04:25;;;;;;;4.22;2.63;;;17.10;36.20;;;;;;7381375;19;20122;-83
2022/04/17 09:06:54;;;;;;;4.13;2.55;;;17.10;36.10;;;;;;7403103;19;20019;-83
2022/04/17 09:09:23;;;;;;;3.03;2.58;;;17.10;35.90;;;;;;7379835;19;20437;-83
2022/04/17 09:11:57;;;;;;;2.92;2.25;;;17.10;36.00;;;;;;7379665;19;20010;-83
2022/04/17 09:14:28;;;;;;;3.90;2.30;;;17.10;35.50;;;;;;7381124;19;20460;-84
2022/04/17 09:16:57;;;;;;;2.88;2.28;;;17.20;35.20;;;;;;7381508;19;20476;-83
2022/04/17 09:19:28;;;;;;;2.97;2.22;;;17.20;35.40;;;;;;7380620;19;20028;-83
2022/04/17 09:21:58;;;;;;;3.10;2.20;;;17.20;35.50;;;;;;7400234;19;20021;-83
2022/04/17 09:24:27;;;;;;;5.97;2.42;;;17.30;35.70;;;;;;7380381;19;20015;-84
2022/04/17 09:26:57;;;;;;;6.18;2.45;;;17.30;35.70;;;;;;7376200;19;20085;-83
2022/04/17 09:29:30;;;;;;;4.70;2.30;;;17.30;35.60;;;;;;7381092;19;20013;-83
2022/04/17 09:32:00;;;;;;;5.35;2.40;;;17.40;35.70;;;;;;7381687;19;20090;-84
2022/04/17 09:34:34;;;;;;;4.85;2.42;;;17.40;35.10;;;;;;7382082;19;20022;-82
2022/04/17 09:37:04;;;;;;;2.65;1.98;;;17.40;34.90;;;;;;7401114;19;20022;-82
2022/04/17 09:39:35;;;;;;;3.20;2.25;;;17.40;35.30;;;;;;7379844;19;20094;-85
2022/04/17 09:42:05;;;;;;;3.53;2.00;;;17.40;35.20;;;;;;7381822;19;20442;-84
2022/04/17 09:44:51;;;;;;;3.05;2.08;;;17.40;35.70;;;;;;7382493;19;20019;-85
2022/04/17 09:47:22;;;;;;;3.28;2.00;;;17.50;35.30;;;;;;7387286;19;20019;-85
2022/04/17 09:49:57;;;;;;;3.60;2.73;;;17.50;35.40;;;;;;7382942;19;20363;-83
2022/04/17 09:52:32;;;;;;;5.00;2.30;;;17.50;36.40;;;;;;7384140;19;20003;-82
2022/04/17 09:55:01;;;;;;;4.78;2.45;;;17.60;36.30;;;;;;7402330;19;20026;-83
2022/04/17 09:57:32;;;;;;;5.43;2.00;;;17.60;36.00;;;;;;7379826;19;20106;-84
2022/04/17 10:00:10;;;;;;;2.97;2.13;;;17.60;35.70;;;;;;7379462;19;20435;-83
2022/04/17 10:02:40;;;;;;;6.75;2.30;;;17.60;35.40;;;;;;7380316;19;20059;-84
2022/04/17 10:05:10;;;;;;;6.60;2.33;;;17.70;35.40;;;;;;7381331;19;20019;-84
2022/04/17 10:07:41;;;;;;;4.55;2.28;;;17.70;35.20;;;;;;7380179;19;20077;-83
2022/04/17 10:10:12;;;;;;;4.97;2.40;;;17.80;35.20;;;;;;7380773;19;20031;-82
2022/04/17 10:12:42;;;;;;;4.67;2.30;;;17.80;35.00;;;;;;7401701;19;20027;-82
2022/04/17 10:15:14;;;;;;;2.22;2.00;;;17.90;34.70;;;;;;7380764;19;20348;-82
2022/04/17 10:17:47;;;;;;;6.90;2.30;;;17.90;35.30;;;;;;7378958;19;20102;-82
2022/04/17 10:20:17;;;;;;;7.60;2.00;;;17.90;34.90;;;;;;7378807;19;20038;-85
2022/04/17 10:22:49;;;;;;;3.80;1.77;;;17.90;34.10;;;;;;7378110;19;20098;-82
2022/04/17 10:25:22;;;;;;;2.85;1.73;;;18.00;33.00;;;;;;7378946;19;20030;-82
2022/04/17 10:27:54;;;;;;;1.83;1.65;;;18.00;33.30;;;;;;7401384;19;20014;-83
2022/04/17 10:30:29;;;;;;;3.70;1.90;;;18.00;33.10;;;;;;7377906;19;20022;-82
2022/04/17 10:33:23;;;;;;;3.13;2.10;;;18.00;33.50;;;;;;7377206;19;20010;-83
2022/04/17 10:36:12;;;;;;;7.00;2.08;;;18.10;33.90;;;;;;7380249;19;20090;-82
2022/04/17 10:38:48;;;;;;;2.03;1.85;;;18.20;33.90;;;;;;7378067;19;20027;-83
2022/04/17 10:41:19;;;;;;;3.55;2.13;;;18.20;33.60;;;;;;7377684;19;20041;-83
2022/04/17 10:44:03;;;;;;;3.38;2.20;;;18.30;33.10;;;;;;7377360;19;20027;-83
2022/04/17 10:46:48;;;;;;;3.78;2.47;;;18.40;33.30;;;;;;7380180;19;20558;-83
2022/04/17 10:49:19;;;;;;;2.53;1.80;;;18.50;33.40;;;;;;7379968;19;20022;-83
2022/04/17 10:51:53;;;;;;;4.93;2.55;;;18.60;32.40;;;;;;7402647;19;20321;-83
2022/04/17 10:54:22;;;;;;;6.47;2.00;;;18.60;32.20;;;;;;7378888;19;20016;-82
2022/04/17 10:57:04;;;;;;;2.15;1.80;;;18.60;32.20;;;;;;7377032;19;20018;-83
2022/04/17 10:59:34;;;;;;;3.95;2.33;;;18.60;32.10;;;;;;7379560;19;20018;-83
2022/04/17 11:02:26;;;;;;;8.05;2.17;;;18.70;31.30;;;;;;7382332;19;20014;-82
2022/04/17 11:04:55;;;;;;;3.17;2.20;;;18.80;31.70;;;;;;7386843;19;20015;-83
2022/04/17 11:07:32;;;;;;;4.20;1.77;;;18.90;31.60;;;;;;7390828;19;20014;-82
2022/04/17 11:10:23;;;;;;;3.22;1.88;;;18.90;31.20;;;;;;7423615;19;20015;-83
2022/04/17 11:12:56;;;;;;;;;;;18.90;30.60;;;;;;7392400;19;20015;-82
2022/04/17 11:15:28;;;;;;;7.63;3.88;;;19.00;30.60;;;;;;7380249;19;20315;-82
2022/04/17 11:18:03;;;;;;;5.85;3.22;;;19.00;30.30;;;;;;7377888;19;20029;-82
2022/04/17 11:20:33;;;;;;;8.43;4.40;;;19.00;30.30;;;;;;7377924;19;20101;-83
2022/04/17 11:23:02;;;;;;;6.10;2.15;;;19.10;30.60;;;;;;7376301;19;20769;-84
2022/04/17 11:25:53;;;;;;;3.30;2.00;;;19.10;31.00;;;;;;7377306;19;20018;-82
2022/04/17 11:28:38;;;;;;;20.63;11.88;;;19.20;30.80;;;;;;7376479;19;20015;-82
2022/04/17 11:31:07;;;;;;;9.45;5.20;;;19.20;30.70;;;;;;7379677;19;20015;-82
2022/04/17 11:33:38;;;;;;;10.90;6.78;;;19.30;30.10;;;;;;7396635;19;20087;-83
2022/04/17 11:36:11;;;;;;;3.13;1.70;;;19.30;30.70;;;;;;7381661;19;20010;-90
2022/04/17 11:38:45;;;;;;;3.60;1.83;;;19.40;30.20;;;;;;7376712;19;20021;-78
2022/04/17 11:41:16;;;;;;;8.20;4.00;;;19.50;30.90;;;;;;7371413;19;20022;-79
2022/04/17 11:44:00;;;;;;;3.78;1.85;;;19.60;31.10;;;;;;7373472;19;20068;-80
2022/04/17 11:46:29;;;;;;;2.95;1.75;;;19.60;30.90;;;;;;7379213;19;20109;-85
2022/04/17 11:49:01;;;;;;;3.20;1.63;;;19.70;29.70;;;;;;7399058;19;20078;-83
2022/04/17 11:51:29;;;;;;;2.67;1.58;;;19.80;29.30;;;;;;7373742;19;20351;-83
2022/04/17 11:53:58;;;;;;;2.97;1.98;;;19.80;28.70;;;;;;7374775;19;20012;-83
2022/04/17 11:56:53;;;;;;;1.60;1.40;;;19.90;29.10;;;;;;7377410;19;20086;-82
2022/04/17 11:59:23;;;;;;;4.25;1.50;;;19.90;28.10;;;;;;7384446;19;20319;-83
2022/04/17 12:02:10;;;;;;;3.20;1.80;;;20.00;28.40;;;;;;7377172;19;20680;-83
2022/04/17 12:04:44;;;;;;;2.45;1.70;;;19.90;28.10;;;;;;7377006;19;20038;-83
2022/04/17 12:07:13;;;;;;;2.95;1.48;;;20.00;28.10;;;;;;7373275;19;20617;-82
2022/04/17 12:09:42;;;;;;;3.05;1.88;;;20.10;28.70;;;;;;7397735;19;20011;-82
2022/04/17 12:12:15;;;;;;;4.35;2.13;;;20.10;29.10;;;;;;7375434;19;20018;-83
2022/04/17 12:14:44;;;;;;;2.72;1.77;;;20.20;29.40;;;;;;7379689;19;20025;-85
2022/04/17 12:17:13;;;;;;;1.98;1.58;;;20.30;29.30;;;;;;7378819;19;20130;-83
2022/04/17 12:19:52;;;;;;;4.32;1.90;;;20.40;28.70;;;;;;7370666;19;20015;-84
2022/04/17 12:22:20;;;;;;;3.17;1.67;;;20.50;29.20;;;;;;7361144;19;20015;-82
2022/04/17 12:24:49;;;;;;;3.03;1.45;;;20.60;28.50;;;;;;7387562;19;20018;-84
2022/04/17 12:27:19;;;;;;;4.22;1.80;;;20.60;27.90;;;;;;7369811;19;20090;-83
2022/04/17 12:29:48;;;;;;;3.58;1.50;;;20.60;27.60;;;;;;7370241;19;20357;-79
2022/04/17 12:32:17;;;;;;;5.07;2.10;;;20.70;28.20;;;;;;7369042;19;20015;-83
2022/04/17 12:34:58;;;;;;;4.22;1.92;;;20.80;28.60;;;;;;7370059;19;20082;-82
2022/04/17 12:37:30;;;;;;;3.08;1.77;;;20.80;29.10;;;;;;7366418;19;20053;-82
2022/04/17 12:40:20;;;;;;;2.42;1.45;;;20.90;28.40;;;;;;7390171;19;20035;-81
2022/04/17 12:42:50;;;;;;;1.65;1.20;;;21.00;27.90;;;;;;7374373;19;20023;-78
2022/04/17 12:45:26;;;;;;;2.10;1.33;;;21.10;27.80;;;;;;7367570;19;20418;-82
2022/04/17 12:48:11;;;;;;;2.03;1.23;;;21.10;27.90;;;;;;7371526;19;20792;-76
2022/04/17 12:50:42;;;;;;;1.98;1.60;;;21.20;27.90;;;;;;7367801;19;20450;-83
2022/04/17 12:53:15;;;;;;;1.50;1.30;;;21.30;28.00;;;;;;7367915;19;20090;-84
2022/04/17 12:55:44;;;;;;;5.05;3.70;;;21.30;28.60;;;;;;7361545;19;20012;-83
2022/04/17 12:58:13;;;;;;;6.18;3.72;;;21.40;29.00;;;;;;7377816;19;20028;-83
2022/04/17 13:00:42;;;;;;;3.88;1.80;;;21.40;28.20;;;;;;7397513;19;20043;-83
2022/04/17 13:03:12;;;;;;;5.40;4.40;;;21.50;27.60;;;;;;7376976;19;20018;-83
2022/04/17 13:05:43;;;;;;;10.45;8.75;;;21.50;26.90;;;;;;7378056;19;20031;-83
2022/04/17 13:08:13;;;;;;;7.40;6.57;;;21.60;26.90;;;;;;7379189;19;20095;-83
2022/04/17 13:10:42;;;;;;;16.77;13.82;;;21.70;27.30;;;;;;7377672;19;20109;-83
2022/04/17 13:13:11;;;;;;;19.45;16.10;;;21.70;27.70;;;;;;7381203;19;20015;-83
2022/04/17 13:15:40;;;;;;;26.40;22.77;;;21.80;27.80;;;;;;7402656;19;20089;-83
2022/04/17 13:18:08;;;;;;;4.57;3.65;;;21.80;27.90;;;;;;7379869;19;20019;-82
2022/04/17 13:20:37;;;;;;;12.18;10.93;;;21.90;28.70;;;;;;7377718;19;20014;-82
2022/04/17 13:23:09;;;;;;;8.07;6.05;;;22.00;28.90;;;;;;7379526;19;20476;-82